createdAt,value
2016-08-25T00:00:18.787Z,55.62
2016-08-25T00:01:18.087Z,55.42
2016-08-25T00:02:18.146Z,55.62
2016-08-25T00:03:18.809Z,55.62
2016-08-25T00:04:18.817Z,55.42
2016-08-25T00:05:18.118Z,55.62
2016-08-25T00:06:18.885Z,55.62
2016-08-25T00:07:18.840Z,55.52
2016-08-25T00:08:18.848Z,55.52
2016-08-25T00:09:18.151Z,55.52
2016-08-25T00:10:18.867Z,55.9
2016-08-25T00:11:18.874Z,55.9
2016-08-25T00:12:18.191Z,55.71
2016-08-25T00:13:18.891Z,55.9
2016-08-25T00:14:18.289Z,55.52
2016-08-25T00:15:18.903Z,55.62
2016-08-25T00:16:18.204Z,55.52
2016-08-25T00:17:18.921Z,55.32
2016-08-25T00:18:18.220Z,55.62
2016-08-25T00:19:18.936Z,55.42
2016-08-25T00:20:18.244Z,55.42
2016-08-25T00:21:18.245Z,55.52
2016-08-25T00:22:18.966Z,55.52
2016-08-25T00:23:18.260Z,55.42
2016-08-25T00:24:18.267Z,55.22
2016-08-25T00:25:18.377Z,55.71
2016-08-25T00:26:18.992Z,55.52
2016-08-25T00:27:18.292Z,55.42
2016-08-25T00:28:19.009Z,55.42
2016-08-25T00:29:18.310Z,55.71
2016-08-25T00:30:19.022Z,55.42
2016-08-25T00:31:19.047Z,55.62
2016-08-25T00:32:19.041Z,55.52
2016-08-25T00:33:18.340Z,55.42
2016-08-25T00:34:19.056Z,55.52
2016-08-25T00:35:19.062Z,55.42
2016-08-25T00:36:19.071Z,55.42
2016-08-25T00:37:19.079Z,55.62
2016-08-25T00:38:18.378Z,55.62
2016-08-25T00:39:19.095Z,55.42
2016-08-25T00:40:18.845Z,55.71
2016-08-25T00:41:19.125Z,55.42
2016-08-25T00:42:19.118Z,55.52
2016-08-25T00:43:19.131Z,55.71
2016-08-25T00:44:18.428Z,55.32
2016-08-25T00:45:19.143Z,55.68
2016-08-25T00:46:19.150Z,55.42
2016-08-25T00:47:19.158Z,55.22
2016-08-25T00:48:18.506Z,55.62
2016-08-25T00:49:19.922Z,55.71
2016-08-25T00:50:18.525Z,55.52
2016-08-25T00:51:19.190Z,55.71
2016-08-25T00:52:19.199Z,55.9
2016-08-25T00:53:19.204Z,55.22
2016-08-25T00:54:19.211Z,55.81
2016-08-25T00:55:18.512Z,55.71
2016-08-25T00:56:18.523Z,55.71
2016-08-25T00:57:18.528Z,55.52
2016-08-25T00:58:18.535Z,55.62
2016-08-25T00:59:18.546Z,55.62
2016-08-25T01:00:19.304Z,55.71
2016-08-25T01:01:19.286Z,55.52
2016-08-25T01:02:18.569Z,55.71
2016-08-25T01:03:19.334Z,55.71
2016-08-25T01:04:19.442Z,55.62
2016-08-25T01:05:19.300Z,55.62
2016-08-25T01:06:18.601Z,55.52
2016-08-25T01:07:19.317Z,55.71
2016-08-25T01:08:18.627Z,55.62
2016-08-25T01:09:19.330Z,55.3
2016-08-25T01:10:19.339Z,55.62
2016-08-25T01:11:19.341Z,55.78
2016-08-25T01:12:19.357Z,55.42
2016-08-25T01:13:18.655Z,55.78
2016-08-25T01:14:19.418Z,55.42
2016-08-25T01:15:19.379Z,56
2016-08-25T01:16:18.677Z,55.32
2016-08-25T01:17:19.393Z,55.62
2016-08-25T01:18:19.402Z,54.94
2016-08-25T01:19:19.414Z,55.62
2016-08-25T01:20:18.717Z,55.22
2016-08-25T01:21:19.426Z,55.42
2016-08-25T01:22:19.435Z,55.42
2016-08-25T01:23:18.739Z,55.58
2016-08-25T01:24:19.931Z,54.94
2016-08-25T01:25:19.459Z,55.13
2016-08-25T01:26:19.468Z,55.13
2016-08-25T01:27:18.763Z,55.22
2016-08-25T01:28:18.775Z,55.52
2016-08-25T01:29:19.490Z,55.04
2016-08-25T01:30:19.497Z,55.22
2016-08-25T01:31:19.513Z,55.2
2016-08-25T01:32:18.809Z,55.42
2016-08-25T01:33:19.523Z,55.81
2016-08-25T01:34:19.530Z,55.04
2016-08-25T01:35:20.596Z,55.62
2016-08-25T01:36:19.549Z,56.1
2016-08-25T01:37:19.756Z,56.1
2016-08-25T01:38:19.562Z,56.1
2016-08-25T01:39:18.863Z,56
2016-08-25T01:40:19.577Z,55.42
2016-08-25T01:41:19.587Z,55.04
2016-08-25T01:42:18.887Z,55.13
2016-08-25T01:43:19.600Z,55.81
2016-08-25T01:44:19.611Z,55.13
2016-08-25T01:45:18.911Z,56
2016-08-25T01:46:20.624Z,56
2016-08-25T01:47:19.634Z,56.1
2016-08-25T01:48:19.182Z,56.07
2016-08-25T01:49:19.647Z,55
2016-08-25T01:50:19.657Z,56.07
2016-08-25T01:51:19.662Z,55.04
2016-08-25T01:52:19.672Z,56.07
2016-08-25T01:53:19.678Z,56
2016-08-25T01:54:19.687Z,56.1
2016-08-25T01:55:18.991Z,55.98
2016-08-25T01:56:18.998Z,55.81
2016-08-25T01:57:20.562Z,56.1
2016-08-25T01:58:19.014Z,55.2
2016-08-25T01:59:19.727Z,55.04
2016-08-25T02:00:19.028Z,55.22
2016-08-25T02:01:19.743Z,55.49
2016-08-25T02:02:19.045Z,55.22
2016-08-25T02:03:19.810Z,56
2016-08-25T02:04:19.060Z,55.78
2016-08-25T02:05:19.825Z,55.49
2016-08-25T02:06:19.077Z,55.04
2016-08-25T02:07:19.085Z,55.9
2016-08-25T02:08:20.551Z,55.98
2016-08-25T02:09:19.101Z,55.2
2016-08-25T02:10:19.812Z,55.13
2016-08-25T02:11:19.113Z,55.32
2016-08-25T02:12:20.438Z,55.3
2016-08-25T02:13:19.131Z,55.2
2016-08-25T02:14:19.846Z,55.1
2016-08-25T02:15:19.854Z,55.13
2016-08-25T02:16:19.914Z,54.84
2016-08-25T02:17:19.870Z,55.2
2016-08-25T02:18:19.876Z,55.1
2016-08-25T02:19:19.884Z,55.1
2016-08-25T02:20:19.894Z,55.1
2016-08-25T02:21:19.195Z,55.1
2016-08-25T02:22:19.912Z,55.1
2016-08-25T02:23:20.821Z,55.22
2016-08-25T02:24:19.221Z,55.1
2016-08-25T02:25:19.241Z,55.13
2016-08-25T02:26:19.231Z,55
2016-08-25T02:27:19.949Z,55.42
2016-08-25T02:28:19.258Z,55.13
2016-08-25T02:29:19.257Z,55.2
2016-08-25T02:30:19.974Z,55.1
2016-08-25T02:31:19.277Z,55.22
2016-08-25T02:32:20.872Z,55.2
2016-08-25T02:33:19.290Z,55.1
2016-08-25T02:34:20.201Z,55.4
2016-08-25T02:35:19.303Z,55.3
2016-08-25T02:36:19.317Z,55.49
2016-08-25T02:37:20.035Z,55.49
2016-08-25T02:38:20.036Z,55.49
2016-08-25T02:39:20.047Z,55.4
2016-08-25T02:40:20.050Z,55.1
2016-08-25T02:41:20.060Z,54.91
2016-08-25T02:42:20.071Z,55.2
2016-08-25T02:43:21.077Z,56.07
2016-08-25T02:44:19.378Z,56.07
2016-08-25T02:45:20.241Z,55
2016-08-25T02:46:19.391Z,55.88
2016-08-25T02:47:20.108Z,55.49
2016-08-25T02:48:20.115Z,55.3
2016-08-25T02:49:20.122Z,55.4
2016-08-25T02:50:19.430Z,55.1
2016-08-25T02:51:20.842Z,55.1
2016-08-25T02:52:20.196Z,55.78
2016-08-25T02:53:19.449Z,54.81
2016-08-25T02:54:20.627Z,55.1
2016-08-25T02:55:20.173Z,55.49
2016-08-25T02:56:20.175Z,55.9
2016-08-25T02:57:20.183Z,55.1
2016-08-25T02:58:19.492Z,55.1
2016-08-25T02:59:20.201Z,55.2
2016-08-25T03:00:20.208Z,55.68
2016-08-25T03:01:20.218Z,55.78
2016-08-25T03:02:20.223Z,55.78
2016-08-25T03:03:19.524Z,55.78
2016-08-25T03:04:20.240Z,55.1
2016-08-25T03:05:20.296Z,55.68
2016-08-25T03:06:20.256Z,55.49
2016-08-25T03:07:20.261Z,55.68
2016-08-25T03:08:20.273Z,55.68
2016-08-25T03:09:20.703Z,55.3
2016-08-25T03:10:20.286Z,55.49
2016-08-25T03:11:20.292Z,55.58
2016-08-25T03:12:20.306Z,55.4
2016-08-25T03:13:19.606Z,55.2
2016-08-25T03:14:19.624Z,55.49
2016-08-25T03:15:20.324Z,55.58
2016-08-25T03:16:19.627Z,55.68
2016-08-25T03:17:19.634Z,55.3
2016-08-25T03:18:20.349Z,55.49
2016-08-25T03:19:20.357Z,55.4
2016-08-25T03:20:21.268Z,55.49
2016-08-25T03:21:20.374Z,55.58
2016-08-25T03:22:19.679Z,55.49
2016-08-25T03:23:19.681Z,55.49
2016-08-25T03:24:20.400Z,55.2
2016-08-25T03:25:20.404Z,55.3
2016-08-25T03:26:19.706Z,55.3
2016-08-25T03:27:19.713Z,55.3
2016-08-25T03:28:19.717Z,55.49
2016-08-25T03:29:20.443Z,55.58
2016-08-25T03:30:19.736Z,55.3
2016-08-25T03:31:21.307Z,55.49
2016-08-25T03:32:20.458Z,55.58
2016-08-25T03:33:20.466Z,55.49
2016-08-25T03:34:20.475Z,55.49
2016-08-25T03:35:20.482Z,55.49
2016-08-25T03:36:20.489Z,55.49
2016-08-25T03:37:20.498Z,55.58
2016-08-25T03:38:20.506Z,55.49
2016-08-25T03:39:20.512Z,55.78
2016-08-25T03:40:19.812Z,55.58
2016-08-25T03:41:19.844Z,55.58
2016-08-25T03:42:20.739Z,55.58
2016-08-25T03:43:19.838Z,55.58
2016-08-25T03:44:20.559Z,55.58
2016-08-25T03:45:19.854Z,55.2
2016-08-25T03:46:20.581Z,55.49
2016-08-25T03:47:20.578Z,55.68
2016-08-25T03:48:19.884Z,55.2
2016-08-25T03:49:20.594Z,55.68
2016-08-25T03:50:19.893Z,55.2
2016-08-25T03:51:20.666Z,55.4
2016-08-25T03:52:19.910Z,55.49
2016-08-25T03:53:20.067Z,55.68
2016-08-25T03:54:20.630Z,55.2
2016-08-25T03:55:21.205Z,55.58
2016-08-25T03:56:20.646Z,55.2
2016-08-25T03:57:20.655Z,55.4
2016-08-25T03:58:19.955Z,55.49
2016-08-25T03:59:19.964Z,55.68
2016-08-25T04:00:19.973Z,55.49
2016-08-25T04:01:20.687Z,55.68
2016-08-25T04:02:19.987Z,55.68
2016-08-25T04:03:19.993Z,55.2
2016-08-25T04:04:20.710Z,55.68
2016-08-25T04:05:20.009Z,55.49
2016-08-25T04:06:20.018Z,55.68
2016-08-25T04:07:20.733Z,55.58
2016-08-25T04:08:20.741Z,55.58
2016-08-25T04:09:20.748Z,55.2
2016-08-25T04:10:20.757Z,55.49
2016-08-25T04:11:20.766Z,55.2
2016-08-25T04:12:20.770Z,55.2
2016-08-25T04:13:20.788Z,55.68
2016-08-25T04:14:20.786Z,55.49
2016-08-25T04:15:20.794Z,55.49
2016-08-25T04:16:20.108Z,55.2
2016-08-25T04:17:21.155Z,55.2
2016-08-25T04:18:20.819Z,55.58
2016-08-25T04:19:20.828Z,55.78
2016-08-25T04:20:20.835Z,55.4
2016-08-25T04:21:20.840Z,55.3
2016-08-25T04:22:20.850Z,55.68
2016-08-25T04:23:20.856Z,55.2
2016-08-25T04:24:20.158Z,55.3
2016-08-25T04:25:20.171Z,55.78
2016-08-25T04:26:21.854Z,55.49
2016-08-25T04:27:20.181Z,55.68
2016-08-25T04:28:21.304Z,55.2
2016-08-25T04:29:20.198Z,55.58
2016-08-25T04:30:20.911Z,55.68
2016-08-25T04:31:20.915Z,55.58
2016-08-25T04:32:20.927Z,55.58
2016-08-25T04:33:20.229Z,55.49
2016-08-25T04:34:20.940Z,55.4
2016-08-25T04:35:20.951Z,55.49
2016-08-25T04:36:20.957Z,55.58
2016-08-25T04:37:20.964Z,55.49
2016-08-25T04:38:20.266Z,55.2
2016-08-25T04:39:21.632Z,55.2
2016-08-25T04:40:20.281Z,55.3
2016-08-25T04:41:20.290Z,55.58
2016-08-25T04:42:21.004Z,55.2
2016-08-25T04:43:20.304Z,55.68
2016-08-25T04:44:21.022Z,55.58
2016-08-25T04:45:20.321Z,55.4
2016-08-25T04:46:21.035Z,55.4
2016-08-25T04:47:21.045Z,55.68
2016-08-25T04:48:21.053Z,55.2
2016-08-25T04:49:21.062Z,55.4
2016-08-25T04:50:20.966Z,55.49
2016-08-25T04:51:20.419Z,55.4
2016-08-25T04:52:22.217Z,55.4
2016-08-25T04:53:20.386Z,55.2
2016-08-25T04:54:21.097Z,55.4
2016-08-25T04:55:21.105Z,55.58
2016-08-25T04:56:21.111Z,55.49
2016-08-25T04:57:21.119Z,55.49
2016-08-25T04:58:21.130Z,55.58
2016-08-25T04:59:20.429Z,55.49
2016-08-25T05:00:20.439Z,55.3
2016-08-25T05:01:21.404Z,55.49
2016-08-25T05:02:20.453Z,55.4
2016-08-25T05:03:20.460Z,55.49
2016-08-25T05:04:21.177Z,55.4
2016-08-25T05:05:20.478Z,55.2
2016-08-25T05:06:20.483Z,55.49
2016-08-25T05:07:20.493Z,55.4
2016-08-25T05:08:20.500Z,55.58
2016-08-25T05:09:21.215Z,55.68
2016-08-25T05:10:20.567Z,55.2
2016-08-25T05:11:20.522Z,55.49
2016-08-25T05:12:20.630Z,55.58
2016-08-25T05:13:21.248Z,55.2
2016-08-25T05:14:20.548Z,55.58
2016-08-25T05:15:21.261Z,55.68
2016-08-25T05:16:21.275Z,55.58
2016-08-25T05:17:20.573Z,55.49
2016-08-25T05:18:20.587Z,55.49
2016-08-25T05:19:20.589Z,55.58
2016-08-25T05:20:21.303Z,55.49
2016-08-25T05:21:20.616Z,55
2016-08-25T05:22:21.318Z,56.07
2016-08-25T05:23:20.620Z,55.1
2016-08-25T05:24:20.627Z,55.1
2016-08-25T05:25:22.092Z,54.91
2016-08-25T05:26:20.643Z,54.71
2016-08-25T05:27:21.358Z,54.84
2016-08-25T05:28:21.366Z,54.91
2016-08-25T05:29:20.669Z,54.71
2016-08-25T05:30:21.382Z,54.91
2016-08-25T05:31:20.686Z,55.04
2016-08-25T05:32:21.398Z,54.71
2016-08-25T05:33:21.405Z,54.71
2016-08-25T05:34:20.712Z,54.71
2016-08-25T05:35:21.425Z,54.81
2016-08-25T05:36:21.426Z,55.4
2016-08-25T05:37:20.735Z,54.91
2016-08-25T05:38:21.452Z,54.91
2016-08-25T05:39:21.459Z,55.2
2016-08-25T05:40:20.774Z,55.2
2016-08-25T05:41:21.480Z,55.1
2016-08-25T05:42:21.483Z,55
2016-08-25T05:43:20.784Z,55.4
2016-08-25T05:44:21.499Z,55
2016-08-25T05:45:21.509Z,55.2
2016-08-25T05:46:21.518Z,54.81
2016-08-25T05:47:21.678Z,54.94
2016-08-25T05:48:21.531Z,54.62
2016-08-25T05:49:22.244Z,54.71
2016-08-25T05:50:21.548Z,54.62
2016-08-25T05:51:20.848Z,55.1
2016-08-25T05:52:21.565Z,54.91
2016-08-25T05:53:21.673Z,55.3
2016-08-25T05:54:21.577Z,55.1
2016-08-25T05:55:20.882Z,54.81
2016-08-25T05:56:21.594Z,54.81
2016-08-25T05:57:21.602Z,54.71
2016-08-25T05:58:21.627Z,54.91
2016-08-25T05:59:21.618Z,54.81
2016-08-25T06:00:20.925Z,54.81
2016-08-25T06:01:20.929Z,54.71
2016-08-25T06:02:21.645Z,54.71
2016-08-25T06:03:21.653Z,54.91
2016-08-25T06:04:20.954Z,54.74
2016-08-25T06:05:21.667Z,54.81
2016-08-25T06:06:21.678Z,54.71
2016-08-25T06:07:20.979Z,54.91
2016-08-25T06:08:21.692Z,55
2016-08-25T06:09:21.701Z,54.81
2016-08-25T06:10:21.759Z,54.71
2016-08-25T06:11:22.237Z,54.91
2016-08-25T06:12:21.730Z,54.71
2016-08-25T06:13:21.538Z,55
2016-08-25T06:14:21.037Z,55
2016-08-25T06:15:21.041Z,55.1
2016-08-25T06:16:21.758Z,55.1
2016-08-25T06:17:21.766Z,54.94
2016-08-25T06:18:21.773Z,54.94
2016-08-25T06:19:21.782Z,54.43
2016-08-25T06:20:21.082Z,54.64
2016-08-25T06:21:21.092Z,54.64
2016-08-25T06:22:21.097Z,54.55
2016-08-25T06:23:21.812Z,54.55
2016-08-25T06:24:21.822Z,54.64
2016-08-25T06:25:21.122Z,54.64
2016-08-25T06:26:21.839Z,53.77
2016-08-25T06:27:21.138Z,53.87
2016-08-25T06:28:21.197Z,53.87
2016-08-25T06:29:21.863Z,54.16
2016-08-25T06:30:21.163Z,54.09
2016-08-25T06:31:21.879Z,53.8
2016-08-25T06:32:21.180Z,53.61
2016-08-25T06:33:21.796Z,53.12
2016-08-25T06:34:21.908Z,52.93
2016-08-25T06:35:21.216Z,53.15
2016-08-25T06:36:21.929Z,53.53
2016-08-25T06:37:21.934Z,52.47
2016-08-25T06:38:21.945Z,52.47
2016-08-25T06:39:21.244Z,52.37
2016-08-25T06:40:21.963Z,52.66
2016-08-25T06:41:21.974Z,51.89
2016-08-25T06:42:21.981Z,51.91
2016-08-25T06:43:21.288Z,51.72
2016-08-25T06:44:22.199Z,51.53
2016-08-25T06:45:22.014Z,51.72
2016-08-25T06:46:21.320Z,50.84
2016-08-25T06:47:21.333Z,51.26
2016-08-25T06:48:21.339Z,51.45
2016-08-25T06:49:22.060Z,50.77
2016-08-25T06:50:21.363Z,50.77
2016-08-25T06:51:21.525Z,50.77
2016-08-25T06:52:21.389Z,50.48
2016-08-25T06:53:22.164Z,50.31
2016-08-25T06:54:22.119Z,50.19
2016-08-25T06:55:22.181Z,50.21
2016-08-25T06:56:22.141Z,49.92
2016-08-25T06:57:21.446Z,50.02
2016-08-25T06:58:22.167Z,50.21
2016-08-25T06:59:22.181Z,49.63
2016-08-25T07:00:22.188Z,49.63
2016-08-25T07:01:22.202Z,49.73
2016-08-25T07:02:22.217Z,49.63
2016-08-25T07:03:22.224Z,49.92
2016-08-25T07:04:22.239Z,49.76
2016-08-25T07:05:22.251Z,49.63
2016-08-25T07:06:22.261Z,49.95
2016-08-25T07:07:21.567Z,50.7
2016-08-25T07:08:23.334Z,51.16
2016-08-25T07:09:22.295Z,51.75
2016-08-25T07:10:22.510Z,51.75
2016-08-25T07:11:22.368Z,52.3
2016-08-25T07:12:22.327Z,51.81
2016-08-25T07:13:21.633Z,52.5
2016-08-25T07:14:21.693Z,52.59
2016-08-25T07:15:21.650Z,52.4
2016-08-25T07:16:22.369Z,52.3
2016-08-25T07:17:21.672Z,52.37
2016-08-25T07:18:21.680Z,52.3
2016-08-25T07:19:23.518Z,52.18
2016-08-25T07:20:21.699Z,52.37
2016-08-25T07:21:22.418Z,52.37
2016-08-25T07:22:22.438Z,52.47
2016-08-25T07:23:22.439Z,52.47
2016-08-25T07:24:22.456Z,52.66
2016-08-25T07:25:21.744Z,52.76
2016-08-25T07:26:22.463Z,52.66
2016-08-25T07:27:22.472Z,52.56
2016-08-25T07:28:21.788Z,52.56
2016-08-25T07:29:21.787Z,52.56
2016-08-25T07:30:23.102Z,52.56
2016-08-25T07:31:21.802Z,52.76
2016-08-25T07:32:22.518Z,52.66
2016-08-25T07:33:22.525Z,52.56
2016-08-25T07:34:21.826Z,53.53
2016-08-25T07:35:22.546Z,53.24
2016-08-25T07:36:22.553Z,53.05
2016-08-25T07:37:21.854Z,53.24
2016-08-25T07:38:22.571Z,53.24
2016-08-25T07:39:22.580Z,52.95
2016-08-25T07:40:22.595Z,52.95
2016-08-25T07:41:23.700Z,53.02
2016-08-25T07:42:21.902Z,53.02
2016-08-25T07:43:22.717Z,53.05
2016-08-25T07:44:22.633Z,52.83
2016-08-25T07:45:23.433Z,53.12
2016-08-25T07:46:21.933Z,52.93
2016-08-25T07:47:22.658Z,53.05
2016-08-25T07:48:21.951Z,53.02
2016-08-25T07:49:22.668Z,53.02
2016-08-25T07:50:21.989Z,52.86
2016-08-25T07:51:22.025Z,52.93
2016-08-25T07:52:22.692Z,53.02
2016-08-25T07:53:22.752Z,53.22
2016-08-25T07:54:22.713Z,53.31
2016-08-25T07:55:22.731Z,53.51
2016-08-25T07:56:23.527Z,53.22
2016-08-25T07:57:22.746Z,53.12
2016-08-25T07:58:22.040Z,52.93
2016-08-25T07:59:22.752Z,53.61
2016-08-25T08:00:22.058Z,53.61
2016-08-25T08:01:22.773Z,53.7
2016-08-25T08:02:22.787Z,53.63
2016-08-25T08:03:22.790Z,53.12
2016-08-25T08:04:22.802Z,53.7
2016-08-25T08:05:23.721Z,53.51
2016-08-25T08:06:22.867Z,53.61
2016-08-25T08:07:23.073Z,53.41
2016-08-25T08:08:22.174Z,53.51
2016-08-25T08:09:22.133Z,53.41
2016-08-25T08:10:22.859Z,53.31
2016-08-25T08:11:22.152Z,53.41
2016-08-25T08:12:22.163Z,53.61
2016-08-25T08:13:22.874Z,53.7
2016-08-25T08:14:22.177Z,53.31
2016-08-25T08:15:22.894Z,53.41
2016-08-25T08:16:22.195Z,53.7
2016-08-25T08:17:22.911Z,53.31
2016-08-25T08:18:23.216Z,53.41
2016-08-25T08:19:22.928Z,53.51
2016-08-25T08:20:22.227Z,53.41
2016-08-25T08:21:22.236Z,53.51
2016-08-25T08:22:22.950Z,53.22
2016-08-25T08:23:22.962Z,53.61
2016-08-25T08:24:22.968Z,53.61
2016-08-25T08:25:22.981Z,53.51
2016-08-25T08:26:22.278Z,53.22
2016-08-25T08:27:24.122Z,53.31
2016-08-25T08:28:23.004Z,53.61
2016-08-25T08:29:23.010Z,53.61
2016-08-25T08:30:23.020Z,53.61
2016-08-25T08:31:24.081Z,53.41
2016-08-25T08:32:23.084Z,53.61
2016-08-25T08:33:22.339Z,53.41
2016-08-25T08:34:22.346Z,53.61
2016-08-25T08:35:22.354Z,52.93
2016-08-25T08:36:23.071Z,53.7
2016-08-25T08:37:23.083Z,53.02
2016-08-25T08:38:23.087Z,53.22
2016-08-25T08:39:23.096Z,52.93
2016-08-25T08:40:22.398Z,53.02
2016-08-25T08:41:23.164Z,53.22
2016-08-25T08:42:23.413Z,53.12
2016-08-25T08:43:23.132Z,52.64
2016-08-25T08:44:23.138Z,52.28
2016-08-25T08:45:22.440Z,52.28
2016-08-25T08:46:22.450Z,52.28
2016-08-25T08:47:23.163Z,52.56
2016-08-25T08:48:22.465Z,52.56
2016-08-25T08:49:22.474Z,52.37
2016-08-25T08:50:22.491Z,52.37
2016-08-25T08:51:23.198Z,52.37
2016-08-25T08:52:22.502Z,52.18
2016-08-25T08:53:23.709Z,52.18
2016-08-25T08:54:22.515Z,52.28
2016-08-25T08:55:23.234Z,52.37
2016-08-25T08:56:23.242Z,52.18
2016-08-25T08:57:23.250Z,52.28
2016-08-25T08:58:23.258Z,52.28
2016-08-25T08:59:22.573Z,52.56
2016-08-25T09:00:22.568Z,52.28
2016-08-25T09:01:23.289Z,52.28
2016-08-25T09:02:23.295Z,52.28
2016-08-25T09:03:22.600Z,52.66
2016-08-25T09:04:23.759Z,52.56
2016-08-25T09:05:22.611Z,52.18
2016-08-25T09:06:23.327Z,52.18
2016-08-25T09:07:22.678Z,52.18
2016-08-25T09:08:22.637Z,52.56
2016-08-25T09:09:23.362Z,52.18
2016-08-25T09:10:23.361Z,52.28
2016-08-25T09:11:22.665Z,52.56
2016-08-25T09:12:23.375Z,52.28
2016-08-25T09:13:22.682Z,52.08
2016-08-25T09:14:22.691Z,52.18
2016-08-25T09:15:23.402Z,52.18
2016-08-25T09:16:23.421Z,52.66
2016-08-25T09:17:22.763Z,52.18
2016-08-25T09:18:22.729Z,52.18
2016-08-25T09:19:23.436Z,52.66
2016-08-25T09:20:22.741Z,52.28
2016-08-25T09:21:22.748Z,52.18
2016-08-25T09:22:23.461Z,52.08
2016-08-25T09:23:23.469Z,52.47
2016-08-25T09:24:22.773Z,52.47
2016-08-25T09:25:23.497Z,52.66
2016-08-25T09:26:22.989Z,52.66
2016-08-25T09:27:22.801Z,52.37
2016-08-25T09:28:22.858Z,52.47
2016-08-25T09:29:23.522Z,52.56
2016-08-25T09:30:23.535Z,52.56
2016-08-25T09:31:23.539Z,52.47
2016-08-25T09:32:22.843Z,52.76
2016-08-25T09:33:22.852Z,52.66
2016-08-25T09:34:22.860Z,52.76
2016-08-25T09:35:23.628Z,52.56
2016-08-25T09:36:23.584Z,52.47
2016-08-25T09:37:23.593Z,51.69
2016-08-25T09:38:23.600Z,52.18
2016-08-25T09:39:22.908Z,52.28
2016-08-25T09:40:23.668Z,51.89
2016-08-25T09:41:22.922Z,52.18
2016-08-25T09:42:23.635Z,52.28
2016-08-25T09:43:22.938Z,51.69
2016-08-25T09:44:22.944Z,51.69
2016-08-25T09:45:22.953Z,52.18
2016-08-25T09:46:23.669Z,51.89
2016-08-25T09:47:22.973Z,51.69
2016-08-25T09:48:22.983Z,51.89
2016-08-25T09:49:22.990Z,51.79
2016-08-25T09:50:23.647Z,51.98
2016-08-25T09:51:23.713Z,51.89
2016-08-25T09:52:23.015Z,51.79
2016-08-25T09:53:23.074Z,51.89
2016-08-25T09:54:23.787Z,51.79
2016-08-25T09:55:23.751Z,51.89
2016-08-25T09:56:23.759Z,51.98
2016-08-25T09:57:23.064Z,52.47
2016-08-25T09:58:23.772Z,52.08
2016-08-25T09:59:24.771Z,51.89
2016-08-25T10:00:23.845Z,51.98
2016-08-25T10:01:24.197Z,51.89
2016-08-25T10:02:23.813Z,51.98
2016-08-25T10:03:23.110Z,51.89
2016-08-25T10:04:23.823Z,52.28
2016-08-25T10:05:23.132Z,52.18
2016-08-25T10:06:23.843Z,52.47
2016-08-25T10:07:23.197Z,52.86
2016-08-25T10:08:23.860Z,53.05
2016-08-25T10:09:23.161Z,52.59
2016-08-25T10:10:23.171Z,52.47
2016-08-25T10:11:23.887Z,52.56
2016-08-25T10:12:24.448Z,52.76
2016-08-25T10:13:23.199Z,52.95
2016-08-25T10:14:24.890Z,53.24
2016-08-25T10:15:23.920Z,53.34
2016-08-25T10:16:23.222Z,53.05
2016-08-25T10:17:23.936Z,53.24
2016-08-25T10:18:23.944Z,53.15
2016-08-25T10:19:23.245Z,52.95
2016-08-25T10:20:23.961Z,53.15
2016-08-25T10:21:23.971Z,53.44
2016-08-25T10:22:23.978Z,53.24
2016-08-25T10:23:23.885Z,52.66
2016-08-25T10:24:23.288Z,52.76
2016-08-25T10:25:25.129Z,52.86
2016-08-25T10:26:23.308Z,52.76
2016-08-25T10:27:24.031Z,52.56
2016-08-25T10:28:23.328Z,53.24
2016-08-25T10:29:24.042Z,53.56
2016-08-25T10:30:24.051Z,53.53
2016-08-25T10:31:24.057Z,53.44
2016-08-25T10:32:23.358Z,53.15
2016-08-25T10:33:24.074Z,53.15
2016-08-25T10:34:24.383Z,53.24
2016-08-25T10:35:24.102Z,52.86
2016-08-25T10:36:23.393Z,53.15
2016-08-25T10:37:24.110Z,52.86
2016-08-25T10:38:24.171Z,53.15
2016-08-25T10:39:24.172Z,52.95
2016-08-25T10:40:24.139Z,53.05
2016-08-25T10:41:23.436Z,53.56
2016-08-25T10:42:24.150Z,53.15
2016-08-25T10:43:24.168Z,53.44
2016-08-25T10:44:24.168Z,53.05
2016-08-25T10:45:24.176Z,54.11
2016-08-25T10:46:23.478Z,54.11
2016-08-25T10:47:23.489Z,53.83
2016-08-25T10:48:24.204Z,53.83
2016-08-25T10:49:23.504Z,53.66
2016-08-25T10:50:24.220Z,54.24
2016-08-25T10:51:23.520Z,53.37
2016-08-25T10:52:24.243Z,53.66
2016-08-25T10:53:23.541Z,54.21
2016-08-25T10:54:24.254Z,54.05
2016-08-25T10:55:24.265Z,54.02
2016-08-25T10:56:24.274Z,53.92
2016-08-25T10:57:23.578Z,54.05
2016-08-25T10:58:23.589Z,53.85
2016-08-25T10:59:23.590Z,53.75
2016-08-25T11:00:24.307Z,54.14
2016-08-25T11:01:24.314Z,53.85
2016-08-25T11:02:23.619Z,53.85
2016-08-25T11:03:24.331Z,53.66
2016-08-25T11:04:24.483Z,53.56
2016-08-25T11:05:23.690Z,53.85
2016-08-25T11:06:23.656Z,54.05
2016-08-25T11:07:24.363Z,53.85
2016-08-25T11:08:24.375Z,53.37
2016-08-25T11:09:25.084Z,53.56
2016-08-25T11:10:24.395Z,53.47
2016-08-25T11:11:23.693Z,53.56
2016-08-25T11:12:23.702Z,53.56
2016-08-25T11:13:24.419Z,53.37
2016-08-25T11:14:23.719Z,53.27
2016-08-25T11:15:24.435Z,53.56
2016-08-25T11:16:24.443Z,53.17
2016-08-25T11:17:24.450Z,53.56
2016-08-25T11:18:24.462Z,53.27
2016-08-25T11:19:23.762Z,53.37
2016-08-25T11:20:24.570Z,53.56
2016-08-25T11:21:23.779Z,53.47
2016-08-25T11:22:24.545Z,52.98
2016-08-25T11:23:24.553Z,53.17
2016-08-25T11:24:24.513Z,52.69
2016-08-25T11:25:24.521Z,53.37
2016-08-25T11:26:24.531Z,52.69
2016-08-25T11:27:23.832Z,52.69
2016-08-25T11:28:24.551Z,52.5
2016-08-25T11:29:24.555Z,53.56
2016-08-25T11:30:23.859Z,52.78
2016-08-25T11:31:24.674Z,53.27
2016-08-25T11:32:23.875Z,52.69
2016-08-25T11:33:24.591Z,52.88
2016-08-25T11:34:23.891Z,52.59
2016-08-25T11:35:24.609Z,52.59
2016-08-25T11:36:24.614Z,52.98
2016-08-25T11:37:23.919Z,52.98
2016-08-25T11:38:24.634Z,52.78
2016-08-25T11:39:23.936Z,52.4
2016-08-25T11:40:23.943Z,52.3
2016-08-25T11:41:24.660Z,52.69
2016-08-25T11:42:24.822Z,52.5
2016-08-25T11:43:23.978Z,52.4
2016-08-25T11:44:25.372Z,52.4
2016-08-25T11:45:24.037Z,52.4
2016-08-25T11:46:24.648Z,52.4
2016-08-25T11:47:24.712Z,52.2
2016-08-25T11:48:24.718Z,52.4
2016-08-25T11:49:24.019Z,52.3
2016-08-25T11:50:24.746Z,52.5
2016-08-25T11:51:24.748Z,52.3
2016-08-25T11:52:24.756Z,52.59
2016-08-25T11:53:24.762Z,52.2
2016-08-25T11:54:24.769Z,52.4
2016-08-25T11:55:25.481Z,52.2
2016-08-25T11:56:24.786Z,52.5
2016-08-25T11:57:24.090Z,52.3
2016-08-25T11:58:24.101Z,52.3
2016-08-25T11:59:24.814Z,52.3
2016-08-25T12:00:24.168Z,52.59
2016-08-25T12:01:24.980Z,52.69
2016-08-25T12:02:24.841Z,52.3
2016-08-25T12:03:24.143Z,52.4
2016-08-25T12:04:24.907Z,52.5
2016-08-25T12:05:24.866Z,52.5
2016-08-25T12:06:25.985Z,52.59
2016-08-25T12:07:24.176Z,52.2
2016-08-25T12:08:24.898Z,52.3
2016-08-25T12:09:24.899Z,52.4
2016-08-25T12:10:24.204Z,52.5
2016-08-25T12:11:24.924Z,52.3
2016-08-25T12:12:24.926Z,52.59
2016-08-25T12:13:24.229Z,52.3
2016-08-25T12:14:24.292Z,52.3
2016-08-25T12:15:24.951Z,52.3
2016-08-25T12:16:24.961Z,52.3
2016-08-25T12:17:24.262Z,52.4
2016-08-25T12:18:24.977Z,52.4
2016-08-25T12:19:24.280Z,52.2
2016-08-25T12:20:24.994Z,52.4
2016-08-25T12:21:25.001Z,52.59
2016-08-25T12:22:25.010Z,52.2
2016-08-25T12:23:24.366Z,52.2
2016-08-25T12:24:24.321Z,52.11
2016-08-25T12:25:24.333Z,52.4
2016-08-25T12:26:24.344Z,52.59
2016-08-25T12:27:25.054Z,52.3
2016-08-25T12:28:25.207Z,52.59
2016-08-25T12:29:25.076Z,52.59
2016-08-25T12:30:24.474Z,52.59
2016-08-25T12:31:25.098Z,52.59
2016-08-25T12:32:25.800Z,52.69
2016-08-25T12:33:24.402Z,52.69
2016-08-25T12:34:25.166Z,52.5
2016-08-25T12:35:25.175Z,52.5
2016-08-25T12:36:25.136Z,52.69
2016-08-25T12:37:24.434Z,51.81
2016-08-25T12:38:25.157Z,51.72
2016-08-25T12:39:25.160Z,51.91
2016-08-25T12:40:25.165Z,52.11
2016-08-25T12:41:25.178Z,51.72
2016-08-25T12:42:25.184Z,51.91
2016-08-25T12:43:25.437Z,52.11
2016-08-25T12:44:25.202Z,51.91
2016-08-25T12:45:25.212Z,51.81
2016-08-25T12:46:25.221Z,52.78
2016-08-25T12:47:25.230Z,52.2
2016-08-25T12:48:24.531Z,53.17
2016-08-25T12:49:25.254Z,53.37
2016-08-25T12:50:25.259Z,53.59
2016-08-25T12:51:25.264Z,52.88
2016-08-25T12:52:26.212Z,52.88
2016-08-25T12:53:24.579Z,52.98
2016-08-25T12:54:25.538Z,53.17
2016-08-25T12:55:25.298Z,53.56
2016-08-25T12:56:25.308Z,52.98
2016-08-25T12:57:25.314Z,53.08
2016-08-25T12:58:24.617Z,52.78
2016-08-25T12:59:25.383Z,52.69